Home   Weather   USA   Las Cruces   Past weeks
Flag for USA

Past Weather in Las Cruces, New Mexico, USA — Yesterday and Last 2 Weeks

Currently: 91 °F. Scattered clouds. (Weather station: Las Cruces International, USA). See more current weather

Past Weather in Las Cruces — Graph

°F

Las Cruces Temperature Yesterday

Maximum temperature yesterday: 95 °F (at 1:55 pm)
Minimum temperature yesterday: 69 °F (at 6:35 am)
Average temperature yesterday: 81 °F

High & Low Weather Summary for the Past Weeks

 TemperatureHumidityPressure
High96 °F (Jul 17, 3:55 pm)100% (Jul 24, 1:55 am)30.29 "Hg (Jul 24, 1:55 am)
Low61 °F (Jul 24, 5:15 am)13% (Jul 28, 4:35 pm)30.01 "Hg (Jul 16, 5:55 pm)
Average79 °F47%30.17 "Hg
* Reported Jul 14 4:15 pm — Jul 29 4:15 pm, Las Cruces. Weather by CustomWeather, © 2021

Note: Actual official high and low records may vary slightly from our data, if they occured in-between our weather recording intervals... More about our weather records

Las Cruces Weather History for the Previous 24 Hours

Scroll right to see more
 ConditionsComfort  
Time TempWeatherWind HumidityBarometerVisibility
4:15 pm
Thu, Jul 29
91 °FScattered clouds.10 mph24%30.12 "Hg10 mi
3:55 pm91 °FSunny.16 mph24%30.12 "Hg10 mi
3:35 pm90 °FSunny.14 mph25%30.12 "Hg10 mi
3:15 pm89 °FScattered clouds.12 mph26%30.14 "Hg10 mi
2:55 pm90 °FSunny.9 mph24%30.15 "Hg10 mi
2:35 pm89 °FSunny.14 mph27%30.16 "Hg10 mi
2:15 pm89 °FSunny.9 mph27%30.17 "Hg10 mi
1:55 pm89 °FSunny.15 mph27%30.18 "Hg10 mi
1:35 pm87 °FSunny.14 mph29%30.18 "Hg10 mi
1:15 pm86 °FSunny.15 mph30%30.20 "Hg10 mi
12:55 pm85 °FSunny.14 mph32%30.20 "Hg10 mi
12:35 pm86 °FSunny.13 mph31%30.22 "Hg10 mi
12:15 pm84 °FSunny.14 mph34%30.22 "Hg10 mi
11:55 am84 °FSunny.15 mph34%30.22 "Hg10 mi
11:35 am84 °FSunny.16 mph34%30.22 "Hg10 mi
11:15 am84 °FSunny.14 mph34%30.23 "Hg10 mi
10:55 am82 °FSunny.12 mph35%30.23 "Hg10 mi
10:35 am82 °FSunny.10 mph36%30.22 "Hg10 mi
10:15 am81 °FSunny.10 mph40%30.22 "Hg10 mi
9:55 am77 °FSunny.10 mph44%30.22 "Hg10 mi
9:35 am78 °FSunny.12 mph42%30.22 "Hg10 mi
9:15 am77 °FSunny.13 mph43%30.22 "Hg10 mi
8:55 am78 °FSunny.10 mph43%30.22 "Hg10 mi
8:35 am77 °FScattered clouds.8 mph44%30.22 "Hg10 mi
8:15 am77 °FPartly sunny.8 mph43%30.22 "Hg10 mi
7:55 am76 °FScattered clouds.5 mph48%30.21 "Hg10 mi
7:35 am73 °FSunny.5 mph53%30.20 "Hg10 mi
7:15 am71 °FScattered clouds.No wind59%30.20 "Hg10 mi
6:55 am71 °FPartly sunny.No wind58%30.20 "Hg10 mi
6:35 am71 °FPartly sunny.5 mph57%30.20 "Hg10 mi
5:55 am71 °FPassing clouds.5 mph58%30.19 "Hg10 mi
5:35 am70 °FPassing clouds.No wind62%30.19 "Hg10 mi
5:15 am71 °FPassing clouds.No wind62%30.19 "Hg10 mi
4:55 am72 °FPassing clouds.No wind60%30.19 "Hg10 mi
4:35 am72 °FMostly cloudy.3 mph59%30.19 "Hg10 mi
4:15 am72 °FPassing clouds.5 mph59%30.19 "Hg7 mi
3:55 am73 °FMostly cloudy.9 mph56%30.18 "Hg10 mi
3:35 am74 °FOvercast.8 mph54%30.18 "Hg10 mi
3:15 am74 °FOvercast.6 mph54%30.18 "Hg10 mi
2:55 am74 °FOvercast.6 mph51%30.18 "Hg10 mi
2:35 am75 °FOvercast.5 mph51%30.18 "Hg10 mi
2:15 am75 °FOvercast.8 mph49%30.18 "Hg10 mi
1:55 am75 °FPassing clouds.8 mph49%30.18 "Hg10 mi
1:35 am76 °FPassing clouds.6 mph48%30.17 "Hg10 mi
1:15 am76 °FPassing clouds.7 mph47%30.17 "Hg10 mi
12:55 am77 °FPassing clouds.8 mph46%30.18 "Hg10 mi
12:35 am77 °FOvercast.7 mph45%30.16 "Hg10 mi
12:15 am77 °FOvercast.7 mph44%30.16 "Hg10 mi
11:55 pm
Wed, Jul 28
77 °FPassing clouds.7 mph43%30.16 "Hg10 mi
11:35 pm77 °FOvercast.5 mph42%30.16 "Hg10 mi
11:15 pm77 °FPassing clouds.6 mph42%30.17 "Hg10 mi
10:55 pm77 °FClear.3 mph41%30.18 "Hg10 mi
10:35 pm78 °FClear.6 mph41%30.16 "Hg10 mi
10:15 pm79 °FClear.6 mph40%30.16 "Hg10 mi
9:55 pm79 °FClear.7 mph39%30.16 "Hg10 mi
9:35 pm80 °FClear.8 mph38%30.15 "Hg10 mi
9:15 pm80 °FClear.7 mph36%30.15 "Hg10 mi
8:55 pm81 °FClear.8 mph34%30.14 "Hg10 mi
8:35 pm81 °FClear.5 mph32%30.14 "Hg10 mi
8:15 pm82 °FClear.7 mph30%30.14 "Hg10 mi
7:55 pm83 °FSunny.8 mph30%30.14 "Hg10 mi
7:35 pm83 °FScattered clouds.10 mph29%30.13 "Hg10 mi
7:15 pm83 °FScattered clouds.13 mph31%30.14 "Hg10 mi
6:55 pm85 °FScattered clouds.10 mph29%30.12 "Hg10 mi
6:35 pm87 °FSunny.13 mph21%30.10 "Hg10 mi
6:15 pm88 °FSunny.10 mph21%30.10 "Hg10 mi
5:55 pm87 °FSunny.15 mph23%30.10 "Hg10 mi
5:35 pm87 °FSunny.15 mph23%30.10 "Hg10 mi
5:15 pm90 °FScattered clouds.22 mph23%30.12 "Hg10 mi
Weather by CustomWeather, © 2021

See weather overview